Time;durP1;ratioP1;P1;durP2;ratioP2;P2;SDS_P1;SDS_P2;PMS_P1;PMS_P2;Temp;Humidity;BMP_temperature;BMP_pressure;BME280_temperature;BME280_humidity;BME280_pressure;Samples;Min_cycle;Max_cycle;Signal;HPM_P1;HPM_P2
2022/05/26 00:01:41;;;;;;;3.70;3.40;;;;;;;;;;5100828;28;24428;-44
2022/05/26 00:04:06;;;;;;;3.90;3.60;;;;;;;;;;5106479;28;24517;-44
2022/05/26 00:06:32;;;;;;;4.20;3.60;;;;;;;;;;5103731;28;24432;-44
2022/05/26 00:08:57;;;;;;;4.03;3.63;;;;;;;;;;5095193;28;24410;-44
2022/05/26 00:11:26;;;;;;;4.00;3.53;;;;;;;;;;5096505;28;24486;-44
2022/05/26 00:13:52;;;;;;;3.60;3.30;;;;;;;;;;5106137;28;25031;-44
2022/05/26 00:16:18;;;;;;;3.70;3.40;;;;;;;;;;5100957;28;24433;-44
2022/05/26 00:18:43;;;;;;;3.78;3.30;;;;;;;;;;5104478;28;24417;-44
2022/05/26 00:21:09;;;;;;;4.30;3.40;;;;;;;;;;5097069;28;24783;-44
2022/05/26 00:23:34;;;;;;;3.40;3.20;;;;;;;;;;5104946;28;24446;-44
2022/05/26 00:25:59;;;;;;;3.53;3.23;;;;;;;;;;5097194;28;24440;-44
2022/05/26 00:28:24;;;;;;;3.20;2.90;;;;;;;;;;5102606;28;24478;-44
2022/05/26 00:30:50;;;;;;;2.70;2.50;;;;;;;;;;5090443;28;24567;-44
2022/05/26 00:33:16;;;;;;;2.70;2.50;;;;;;;;;;5103242;28;24416;-44
2022/05/26 00:35:41;;;;;;;3.00;2.80;;;;;;;;;;5094754;28;25078;-44
2022/05/26 00:38:08;;;;;;;2.97;2.70;;;;;;;;;;5099242;28;24426;-44
2022/05/26 00:40:33;;;;;;;2.70;2.50;;;;;;;;;;5078400;28;24437;-45
2022/05/26 00:42:59;;;;;;;3.40;3.10;;;;;;;;;;5014855;28;1692654;-44
2022/05/26 00:45:28;;;;;;;2.93;2.73;;;;;;;;;;5068699;28;24963;-43
2022/05/26 00:47:53;;;;;;;2.90;2.70;;;;;;;;;;5075583;28;24442;-44
2022/05/26 00:50:24;;;;;;;2.60;2.40;;;;;;;;;;5073007;28;24429;-44
2022/05/26 00:53:01;;;;;;;2.60;2.40;;;;;;;;;;5075573;28;24484;-44
2022/05/26 00:55:29;;;;;;;2.70;2.50;;;;;;;;;;5063149;28;24449;-45
2022/05/26 00:58:15;;;;;;;2.60;2.40;;;;;;;;;;5074089;28;24411;-44
2022/05/26 01:00:41;;;;;;;2.45;2.20;;;;;;;;;;5046666;28;24436;-44
2022/05/26 01:03:25;;;;;;;2.55;2.35;;;;;;;;;;5051678;28;24488;-44
2022/05/26 01:05:56;;;;;;;2.60;2.40;;;;;;;;;;5054262;28;24431;-44
2022/05/26 01:08:25;;;;;;;2.35;2.13;;;;;;;;;;5070756;28;24464;-44
2022/05/26 01:10:51;;;;;;;3.03;2.22;;;;;;;;;;5079836;28;24464;-44
2022/05/26 01:13:17;;;;;;;2.40;2.20;;;;;;;;;;5072412;28;24437;-44
2022/05/26 01:15:46;;;;;;;2.83;2.15;;;;;;;;;;5056421;28;24488;-44
2022/05/26 01:18:11;;;;;;;2.60;2.40;;;;;;;;;;5063955;28;24584;-44
2022/05/26 01:20:48;;;;;;;2.22;2.13;;;;;;;;;;5065095;28;24521;-44
2022/05/26 01:23:32;;;;;;;2.00;1.90;;;;;;;;;;5055627;28;24442;-44
2022/05/26 01:26:03;;;;;;;2.10;2.00;;;;;;;;;;5066004;28;24415;-44
2022/05/26 01:28:40;;;;;;;2.13;2.03;;;;;;;;;;5055328;28;24419;-44
2022/05/26 01:31:14;;;;;;;2.10;1.98;;;;;;;;;;5055041;28;24959;-44
2022/05/26 01:33:47;;;;;;;2.50;2.30;;;;;;;;;;5065212;28;24427;-44
2022/05/26 01:36:20;;;;;;;2.83;2.05;;;;;;;;;;5079549;28;24429;-44
2022/05/26 01:39:03;;;;;;;2.40;1.98;;;;;;;;;;5077662;28;24434;-44
2022/05/26 01:41:44;;;;;;;2.30;2.10;;;;;;;;;;5069813;28;24422;-45
2022/05/26 01:44:22;;;;;;;2.30;2.10;;;;;;;;;;5070793;28;24434;-44
2022/05/26 01:46:50;;;;;;;2.00;1.85;;;;;;;;;;5062248;28;24964;-44
2022/05/26 01:49:21;;;;;;;2.85;1.92;;;;;;;;;;5082080;28;24575;-44
2022/05/26 01:51:53;;;;;;;2.20;2.00;;;;;;;;;;5086700;28;24426;-44
2022/05/26 01:54:24;;;;;;;1.80;1.70;;;;;;;;;;5055417;28;24920;-45
2022/05/26 01:56:58;;;;;;;2.00;1.90;;;;;;;;;;5065855;28;24485;-44
2022/05/26 01:59:28;;;;;;;2.40;1.90;;;;;;;;;;5061318;28;24419;-44
2022/05/26 02:02:05;;;;;;;2.30;2.10;;;;;;;;;;5064454;28;24434;-44
2022/05/26 02:04:36;;;;;;;2.80;1.90;;;;;;;;;;5083626;28;24441;-44
2022/05/26 02:07:04;;;;;;;2.00;1.80;;;;;;;;;;5071067;28;24443;-44
2022/05/26 02:09:31;;;;;;;2.08;1.98;;;;;;;;;;5061228;28;24417;-43
2022/05/26 02:12:01;;;;;;;2.07;1.90;;;;;;;;;;5065928;28;24460;-44
2022/05/26 02:14:31;;;;;;;2.10;1.92;;;;;;;;;;5066001;28;24419;-43
2022/05/26 02:17:17;;;;;;;2.22;2.03;;;;;;;;;;5065904;28;25048;-44
2022/05/26 02:19:44;;;;;;;2.15;1.95;;;;;;;;;;5064185;28;24831;-44
2022/05/26 02:22:17;;;;;;;3.75;1.90;;;;;;;;;;5066466;28;25003;-44
2022/05/26 02:24:50;;;;;;;2.40;2.08;;;;;;;;;;5064805;28;24876;-44
2022/05/26 02:27:15;;;;;;;2.47;2.00;;;;;;;;;;5052382;28;24442;-44
2022/05/26 02:29:52;;;;;;;2.60;2.20;;;;;;;;;;5060419;28;24407;-44
2022/05/26 02:32:22;;;;;;;2.25;1.95;;;;;;;;;;5064133;28;24447;-44
2022/05/26 02:34:48;;;;;;;2.00;1.90;;;;;;;;;;5061054;28;24425;-44
2022/05/26 02:37:14;;;;;;;2.10;1.90;;;;;;;;;;5050350;28;24427;-44
2022/05/26 02:39:39;;;;;;;2.50;1.80;;;;;;;;;;5047554;28;24399;-48
2022/05/26 02:42:04;;;;;;;2.45;1.67;;;;;;;;;;5061401;28;24473;-44
2022/05/26 02:44:30;;;;;;;2.03;1.50;;;;;;;;;;5067679;28;24407;-44
2022/05/26 02:46:58;;;;;;;1.85;1.30;;;;;;;;;;5069419;28;24378;-45
2022/05/26 02:49:41;;;;;;;1.65;1.30;;;;;;;;;;5068894;28;24391;-44
2022/05/26 02:52:09;;;;;;;2.47;1.50;;;;;;;;;;5063328;28;24829;-44
2022/05/26 02:54:46;;;;;;;1.27;1.03;;;;;;;;;;5069150;28;24948;-44
2022/05/26 02:57:24;;;;;;;1.70;1.17;;;;;;;;;;5065781;28;24395;-44
2022/05/26 02:59:52;;;;;;;1.40;1.30;;;;;;;;;;5068894;28;24426;-44
2022/05/26 03:02:17;;;;;;;1.40;1.30;;;;;;;;;;5066207;28;24395;-44
2022/05/26 03:04:48;;;;;;;1.40;1.30;;;;;;;;;;5068761;28;24393;-45
2022/05/26 03:07:18;;;;;;;1.67;1.30;;;;;;;;;;5068931;28;24788;-44
2022/05/26 03:09:43;;;;;;;1.40;1.30;;;;;;;;;;5068787;28;24403;-44
2022/05/26 03:12:22;;;;;;;1.52;1.17;;;;;;;;;;5068756;28;24523;-44
2022/05/26 03:14:47;;;;;;;1.70;1.20;;;;;;;;;;5068619;28;24490;-44
2022/05/26 03:17:12;;;;;;;1.30;1.20;;;;;;;;;;5049345;28;24526;-44
2022/05/26 03:19:38;;;;;;;2.00;1.17;;;;;;;;;;5062952;28;24387;-43
2022/05/26 03:22:03;;;;;;;1.40;1.30;;;;;;;;;;5062929;28;24496;-43
2022/05/26 03:24:28;;;;;;;1.30;1.20;;;;;;;;;;5068436;28;24921;-44
2022/05/26 03:26:53;;;;;;;1.30;1.20;;;;;;;;;;5068349;28;24444;-45
2022/05/26 03:29:18;;;;;;;2.35;1.40;;;;;;;;;;5068577;28;24545;-44
2022/05/26 03:31:44;;;;;;;1.50;1.40;;;;;;;;;;5067861;28;24418;-44
2022/05/26 03:42:21;;;;;;;1.98;1.00;;;;;;;;;;5043804;28;24439;-44
2022/05/26 03:44:46;;;;;;;2.00;1.20;;;;;;;;;;5048128;28;24470;-44
2022/05/26 03:47:11;;;;;;;1.57;1.30;;;;;;;;;;5048252;28;24421;-44
2022/05/26 03:49:37;;;;;;;2.30;1.10;;;;;;;;;;5048254;28;24913;-44
2022/05/26 03:52:02;;;;;;;1.30;1.20;;;;;;;;;;5048682;28;24427;-44
2022/05/26 03:54:27;;;;;;;1.30;1.20;;;;;;;;;;5067843;28;24402;-44
2022/05/26 03:56:52;;;;;;;1.40;1.20;;;;;;;;;;5067815;28;24390;-44
2022/05/26 03:59:17;;;;;;;2.33;1.30;;;;;;;;;;5055423;28;24774;-44
2022/05/26 04:01:43;;;;;;;2.03;1.83;;;;;;;;;;5046377;28;24474;-44
2022/05/26 04:04:08;;;;;;;1.40;1.20;;;;;;;;;;5048080;28;24445;-44
2022/05/26 04:06:33;;;;;;;1.53;1.20;;;;;;;;;;5050097;28;24426;-44
2022/05/26 04:08:59;;;;;;;1.30;1.20;;;;;;;;;;5054657;28;24487;-44
2022/05/26 04:11:24;;;;;;;2.00;1.30;;;;;;;;;;5067829;28;24947;-44
2022/05/26 04:13:51;;;;;;;1.40;1.30;;;;;;;;;;5063983;28;24445;-45
2022/05/26 04:16:16;;;;;;;1.25;1.10;;;;;;;;;;5053891;28;24503;-45
2022/05/26 04:18:41;;;;;;;1.20;1.00;;;;;;;;;;5064394;28;24980;-44
2022/05/26 04:21:07;;;;;;;1.20;1.10;;;;;;;;;;5064771;28;24459;-45
2022/05/26 04:23:33;;;;;;;1.50;1.05;;;;;;;;;;5045260;28;24399;-44
2022/05/26 04:25:58;;;;;;;1.30;1.20;;;;;;;;;;5048548;28;24508;-44
2022/05/26 04:28:23;;;;;;;1.47;1.10;;;;;;;;;;5078195;28;24513;-44
2022/05/26 04:30:48;;;;;;;1.90;0.93;;;;;;;;;;5074198;28;24422;-44
2022/05/26 04:33:13;;;;;;;2.40;1.20;;;;;;;;;;5077740;28;24437;-43
2022/05/26 04:35:39;;;;;;;0.98;0.93;;;;;;;;;;5064009;28;24423;-44
2022/05/26 04:38:04;;;;;;;2.47;1.20;;;;;;;;;;5052504;28;24492;-44
2022/05/26 04:40:29;;;;;;;1.40;1.10;;;;;;;;;;5071568;28;24425;-44
2022/05/26 04:42:54;;;;;;;1.40;1.10;;;;;;;;;;5078745;28;25119;-44
2022/05/26 04:45:19;;;;;;;1.43;1.20;;;;;;;;;;5061275;28;24430;-44
2022/05/26 04:47:44;;;;;;;0.97;0.97;;;;;;;;;;5064623;28;24394;-44
2022/05/26 04:50:11;;;;;;;1.90;1.45;;;;;;;;;;5058948;28;24518;-44
2022/05/26 04:52:36;;;;;;;2.33;1.40;;;;;;;;;;5027530;28;24406;-44
2022/05/26 04:55:01;;;;;;;1.65;1.00;;;;;;;;;;5046196;28;24387;-44
2022/05/26 04:57:27;;;;;;;0.93;0.93;;;;;;;;;;5046516;28;24486;-44
2022/05/26 04:59:52;;;;;;;1.10;1.00;;;;;;;;;;5045997;28;24518;-44
2022/05/26 05:02:18;;;;;;;1.90;1.00;;;;;;;;;;5046438;28;24412;-44
2022/05/26 05:04:44;;;;;;;1.42;1.20;;;;;;;;;;5046164;28;24403;-44
2022/05/26 05:07:10;;;;;;;1.00;1.00;;;;;;;;;;5046937;28;24403;-44
2022/05/26 05:09:36;;;;;;;1.10;1.00;;;;;;;;;;5055146;28;24427;-44
2022/05/26 05:12:01;;;;;;;1.08;0.98;;;;;;;;;;5064037;28;24395;-44
2022/05/26 05:14:26;;;;;;;1.00;0.90;;;;;;;;;;5066539;28;24410;-44
2022/05/26 05:16:51;;;;;;;1.30;1.17;;;;;;;;;;5066498;28;24403;-45
2022/05/26 05:19:18;;;;;;;2.20;1.20;;;;;;;;;;5066589;28;24379;-45
2022/05/26 05:21:49;;;;;;;1.45;1.10;;;;;;;;;;5066119;28;24559;-45
2022/05/26 05:24:17;;;;;;;1.90;1.10;;;;;;;;;;5066171;28;24422;-44
2022/05/26 05:26:45;;;;;;;1.23;1.13;;;;;;;;;;5066002;28;24940;-44
2022/05/26 05:29:11;;;;;;;1.73;1.10;;;;;;;;;;5066578;28;24395;-45
2022/05/26 05:31:38;;;;;;;2.00;1.02;;;;;;;;;;5066603;28;24444;-44
2022/05/26 05:34:07;;;;;;;1.42;1.13;;;;;;;;;;5066266;28;24403;-45
2022/05/26 05:36:34;;;;;;;2.00;1.15;;;;;;;;;;5065886;28;25001;-44
2022/05/26 05:38:59;;;;;;;2.55;1.23;;;;;;;;;;5065929;28;25088;-44
2022/05/26 05:41:25;;;;;;;2.20;1.23;;;;;;;;;;5066359;28;24554;-44
2022/05/26 05:43:51;;;;;;;1.67;1.10;;;;;;;;;;5065992;28;24508;-44
2022/05/26 05:46:19;;;;;;;1.80;1.33;;;;;;;;;;5066334;28;24503;-44
2022/05/26 05:48:44;;;;;;;1.50;1.40;;;;;;;;;;5066146;28;24436;-44
2022/05/26 05:51:10;;;;;;;1.27;1.17;;;;;;;;;;5065970;28;24398;-44
2022/05/26 05:53:35;;;;;;;1.60;1.30;;;;;;;;;;5065922;28;24477;-44
2022/05/26 05:56:01;;;;;;;1.20;1.10;;;;;;;;;;5066018;28;24387;-45
2022/05/26 05:58:26;;;;;;;1.20;1.10;;;;;;;;;;5066108;28;24856;-44
2022/05/26 06:00:51;;;;;;;1.10;1.00;;;;;;;;;;5065955;28;25037;-45
2022/05/26 06:03:16;;;;;;;3.00;1.30;;;;;;;;;;5065838;28;24393;-44
2022/05/26 06:05:41;;;;;;;1.60;1.00;;;;;;;;;;5065978;28;24386;-44
2022/05/26 06:08:06;;;;;;;1.37;1.27;;;;;;;;;;5065880;28;24387;-44
2022/05/26 06:10:32;;;;;;;1.63;1.05;;;;;;;;;;5065975;28;24397;-45
2022/05/26 06:12:57;;;;;;;2.27;1.10;;;;;;;;;;5066883;28;24478;-44
2022/05/26 06:15:23;;;;;;;1.55;0.90;;;;;;;;;;5086219;28;24422;-44
2022/05/26 06:17:48;;;;;;;1.90;1.00;;;;;;;;;;5086007;28;24432;-45
2022/05/26 06:20:14;;;;;;;1.10;1.00;;;;;;;;;;5085661;28;24842;-45
2022/05/26 06:22:42;;;;;;;1.33;1.00;;;;;;;;;;5086094;28;24447;-44
2022/05/26 06:25:08;;;;;;;1.80;1.20;;;;;;;;;;5088697;28;24752;-45
2022/05/26 06:30:18;;;;;;;1.60;0.90;;;;;;;;;;5089679;28;24386;-45
2022/05/26 06:38:20;;;;;;;1.80;1.10;;;;;;;;;;5089677;28;24393;-45
2022/05/26 06:40:45;;;;;;;1.40;1.30;;;;;;;;;;5089337;28;25399;-44
2022/05/26 06:43:10;;;;;;;2.13;1.40;;;;;;;;;;5088672;28;24566;-45
2022/05/26 06:45:36;;;;;;;1.77;1.20;;;;;;;;;;5089214;28;24528;-45
2022/05/26 06:48:01;;;;;;;1.50;1.10;;;;;;;;;;5089020;28;25262;-45
2022/05/26 06:50:26;;;;;;;4.00;1.30;;;;;;;;;;5089201;28;24417;-45
2022/05/26 06:52:51;;;;;;;2.10;1.00;;;;;;;;;;5089088;28;24397;-44
2022/05/26 06:55:16;;;;;;;0.90;0.90;;;;;;;;;;5089177;28;24484;-45
2022/05/26 06:57:42;;;;;;;1.10;0.93;;;;;;;;;;5089360;28;24389;-45
2022/05/26 07:00:07;;;;;;;2.10;1.10;;;;;;;;;;5088743;28;24973;-45
2022/05/26 07:02:33;;;;;;;1.60;1.08;;;;;;;;;;5088613;28;24404;-46
2022/05/26 07:04:58;;;;;;;2.13;1.23;;;;;;;;;;5088196;28;24952;-47
2022/05/26 07:07:25;;;;;;;1.90;1.00;;;;;;;;;;5089317;28;24799;-45
2022/05/26 07:09:52;;;;;;;1.20;0.95;;;;;;;;;;5064517;28;24445;-45
2022/05/26 07:12:17;;;;;;;1.23;1.08;;;;;;;;;;5054598;28;24481;-45
2022/05/26 07:14:42;;;;;;;1.92;1.00;;;;;;;;;;5066816;28;24589;-45
2022/05/26 07:17:07;;;;;;;1.70;0.90;;;;;;;;;;5068277;28;24406;-45
2022/05/26 07:19:33;;;;;;;1.15;0.90;;;;;;;;;;5056239;28;24443;-45
2022/05/26 07:21:59;;;;;;;1.20;0.90;;;;;;;;;;5045958;28;24820;-46
2022/05/26 07:24:24;;;;;;;1.40;1.00;;;;;;;;;;5057350;28;24423;-45
2022/05/26 07:26:50;;;;;;;2.83;1.10;;;;;;;;;;5068019;28;24418;-44
2022/05/26 07:29:16;;;;;;;2.30;1.10;;;;;;;;;;5055630;28;24514;-45
2022/05/26 07:31:41;;;;;;;1.40;1.00;;;;;;;;;;5046954;28;24415;-44
2022/05/26 07:34:07;;;;;;;1.27;0.90;;;;;;;;;;5047489;28;24568;-45
2022/05/26 07:42:02;;;;;;;1.10;1.00;;;;;;;;;;5045703;28;24500;-44
2022/05/26 07:44:28;;;;;;;0.90;0.90;;;;;;;;;;5047252;28;24418;-45
2022/05/26 07:46:53;;;;;;;1.50;0.97;;;;;;;;;;5046187;28;24437;-45
2022/05/26 07:49:18;;;;;;;1.60;0.90;;;;;;;;;;5045273;28;24716;-45
2022/05/26 07:51:43;;;;;;;1.70;0.80;;;;;;;;;;5047505;28;24937;-44
2022/05/26 07:54:08;;;;;;;1.10;0.90;;;;;;;;;;5064316;28;24987;-45
2022/05/26 07:56:36;;;;;;;2.10;1.00;;;;;;;;;;5065821;28;24935;-45
2022/05/26 07:59:02;;;;;;;1.10;1.00;;;;;;;;;;5067416;28;24803;-45
2022/05/26 08:01:27;;;;;;;1.30;1.20;;;;;;;;;;5067416;28;24953;-45
2022/05/26 08:03:53;;;;;;;2.10;0.90;;;;;;;;;;5065970;28;24418;-45
2022/05/26 08:06:18;;;;;;;2.67;1.00;;;;;;;;;;5065882;28;24413;-45
2022/05/26 08:08:44;;;;;;;3.07;1.00;;;;;;;;;;5066227;28;24431;-45
2022/05/26 08:11:09;;;;;;;1.20;1.00;;;;;;;;;;5067371;28;24419;-45
2022/05/26 08:13:34;;;;;;;1.70;1.10;;;;;;;;;;5046894;28;24530;-45
2022/05/26 08:15:59;;;;;;;1.80;1.10;;;;;;;;;;5045542;28;24422;-44
2022/05/26 08:18:27;;;;;;;1.90;0.80;;;;;;;;;;5047159;28;24434;-44
2022/05/26 08:20:52;;;;;;;1.55;1.13;;;;;;;;;;5044456;28;24414;-46
2022/05/26 08:23:17;;;;;;;0.90;0.90;;;;;;;;;;5044701;28;25182;-44
2022/05/26 08:25:42;;;;;;;1.20;0.90;;;;;;;;;;5046674;28;24430;-44
2022/05/26 08:28:08;;;;;;;1.02;0.90;;;;;;;;;;5066892;28;25041;-44
2022/05/26 08:30:33;;;;;;;1.40;1.20;;;;;;;;;;5064217;28;24772;-44
2022/05/26 08:32:58;;;;;;;1.90;0.93;;;;;;;;;;5045338;28;24494;-44
2022/05/26 08:35:24;;;;;;;1.40;1.10;;;;;;;;;;5046334;28;24996;-45
2022/05/26 08:37:49;;;;;;;2.30;1.00;;;;;;;;;;5066667;28;24516;-45
2022/05/26 08:40:34;;;;;;;1.60;1.00;;;;;;;;;;5065793;28;24464;-45
2022/05/26 08:43:00;;;;;;;1.10;1.00;;;;;;;;;;5045099;28;24415;-45
2022/05/26 08:45:26;;;;;;;1.60;1.05;;;;;;;;;;5046358;28;24480;-45
2022/05/26 08:47:51;;;;;;;1.17;1.08;;;;;;;;;;5044811;28;24452;-45
2022/05/26 08:50:18;;;;;;;2.85;1.10;;;;;;;;;;5046086;28;24431;-45
2022/05/26 08:52:43;;;;;;;2.50;0.98;;;;;;;;;;5045009;28;24411;-45
2022/05/26 08:55:15;;;;;;;3.78;1.30;;;;;;;;;;5048794;28;24423;-45
2022/05/26 08:57:49;;;;;;;0.90;0.90;;;;;;;;;;5065397;28;24463;-45
2022/05/26 09:00:16;;;;;;;2.40;1.00;;;;;;;;;;5060553;28;24975;-45
2022/05/26 09:02:42;;;;;;;1.60;0.70;;;;;;;;;;5044795;28;24395;-45
2022/05/26 09:05:12;;;;;;;1.70;0.90;;;;;;;;;;5046946;28;24430;-45
2022/05/26 09:13:17;;;;;;;1.60;0.80;;;;;;;;;;5044536;28;25045;-45
2022/05/26 09:15:42;;;;;;;3.70;0.90;;;;;;;;;;5057146;28;24617;-45
2022/05/26 09:18:12;;;;;;;5.20;1.23;;;;;;;;;;5064640;28;24749;-45
2022/05/26 09:20:41;;;;;;;2.10;1.15;;;;;;;;;;5053376;28;24427;-45
2022/05/26 09:23:08;;;;;;;2.90;1.10;;;;;;;;;;5044610;28;24540;-45
2022/05/26 09:25:44;;;;;;;1.90;1.10;;;;;;;;;;5058176;28;24422;-44
2022/05/26 09:28:10;;;;;;;2.08;1.00;;;;;;;;;;5064673;28;24436;-44
2022/05/26 09:30:35;;;;;;;1.60;1.00;;;;;;;;;;5064789;28;24517;-45
2022/05/26 09:33:01;;;;;;;1.63;1.00;;;;;;;;;;5066564;28;24791;-45
2022/05/26 09:35:30;;;;;;;1.45;1.10;;;;;;;;;;5064406;28;24990;-44
2022/05/26 09:37:57;;;;;;;2.90;1.10;;;;;;;;;;5066375;28;24418;-44
2022/05/26 09:40:30;;;;;;;0.80;0.70;;;;;;;;;;5047271;28;25092;-45
2022/05/26 09:43:17;;;;;;;1.40;0.80;;;;;;;;;;5045875;28;24423;-45
2022/05/26 09:45:50;;;;;;;3.33;1.00;;;;;;;;;;5044624;28;24471;-45
2022/05/26 09:48:17;;;;;;;1.77;1.30;;;;;;;;;;5045463;28;24439;-44
2022/05/26 09:50:48;;;;;;;3.90;1.50;;;;;;;;;;5043820;28;24532;-45
2022/05/26 09:53:26;;;;;;;2.00;1.10;;;;;;;;;;5046691;28;24998;-45
2022/05/26 09:55:54;;;;;;;4.40;1.60;;;;;;;;;;5064446;28;24920;-44
2022/05/26 09:58:37;;;;;;;3.20;1.40;;;;;;;;;;5064562;28;24431;-45
2022/05/26 10:01:06;;;;;;;2.17;1.80;;;;;;;;;;5068097;28;24423;-45
2022/05/26 10:03:47;;;;;;;1.27;1.10;;;;;;;;;;5061948;28;24415;-45
2022/05/26 10:06:30;;;;;;;2.03;1.42;;;;;;;;;;5048376;28;24417;-45
2022/05/26 10:08:55;;;;;;;1.70;1.27;;;;;;;;;;5049185;28;24738;-45
2022/05/26 10:11:39;;;;;;;2.50;1.50;;;;;;;;;;5047345;28;25132;-45
2022/05/26 10:14:13;;;;;;;2.10;1.10;;;;;;;;;;5062744;28;24431;-44
2022/05/26 10:16:43;;;;;;;6.55;1.50;;;;;;;;;;5068064;28;24415;-46
2022/05/26 10:19:22;;;;;;;3.08;1.20;;;;;;;;;;5052612;28;24469;-44
2022/05/26 10:21:50;;;;;;;2.10;1.23;;;;;;;;;;5047901;28;24427;-44
2022/05/26 10:24:34;;;;;;;2.03;1.00;;;;;;;;;;5064880;28;24513;-46
2022/05/26 10:27:04;;;;;;;3.13;1.02;;;;;;;;;;5067375;28;24425;-44
2022/05/26 10:29:32;;;;;;;3.58;1.50;;;;;;;;;;5049637;28;24414;-44
2022/05/26 10:31:57;;;;;;;1.17;1.00;;;;;;;;;;5050765;28;24384;-45
2022/05/26 10:34:37;;;;;;;1.30;0.90;;;;;;;;;;5068200;28;24395;-45
2022/05/26 10:37:07;;;;;;;2.10;0.90;;;;;;;;;;5064039;28;24415;-43
2022/05/26 10:39:56;;;;;;;2.63;1.10;;;;;;;;;;5047208;28;24743;-44
2022/05/26 10:42:30;;;;;;;4.53;1.20;;;;;;;;;;5055951;28;24443;-45
2022/05/26 10:45:13;;;;;;;1.85;1.08;;;;;;;;;;5065317;28;24441;-44
2022/05/26 10:47:47;;;;;;;2.00;1.00;;;;;;;;;;5067953;28;24573;-44
2022/05/26 10:50:16;;;;;;;1.92;1.00;;;;;;;;;;5067395;28;24753;-44
2022/05/26 10:52:43;;;;;;;0.80;0.73;;;;;;;;;;5067850;28;24414;-44
2022/05/26 10:55:11;;;;;;;1.58;0.80;;;;;;;;;;5066766;28;24938;-44
2022/05/26 10:57:38;;;;;;;1.00;0.80;;;;;;;;;;5053406;28;24427;-44
2022/05/26 11:00:04;;;;;;;2.00;0.80;;;;;;;;;;5048876;28;24429;-44
2022/05/26 11:02:34;;;;;;;1.00;0.90;;;;;;;;;;5062246;28;24462;-48
2022/05/26 11:05:02;;;;;;;1.00;0.80;;;;;;;;;;5068909;28;24402;-44
2022/05/26 11:07:30;;;;;;;1.90;0.90;;;;;;;;;;5063772;28;24513;-44
2022/05/26 11:09:57;;;;;;;0.80;0.70;;;;;;;;;;5066777;28;24943;-45
2022/05/26 11:12:36;;;;;;;0.90;0.80;;;;;;;;;;5068061;28;24994;-44
2022/05/26 11:18:04;;;;;;;1.02;0.90;;;;;;;;;;5068724;28;24394;-44
2022/05/26 11:20:38;;;;;;;1.10;1.00;;;;;;;;;;5068211;28;24433;-44
2022/05/26 11:23:04;;;;;;;1.23;0.90;;;;;;;;;;5068492;28;24485;-45
2022/05/26 11:25:30;;;;;;;1.00;0.90;;;;;;;;;;5067717;28;24482;-44
2022/05/26 11:27:58;;;;;;;0.70;0.70;;;;;;;;;;5068155;28;24418;-44
2022/05/26 11:36:29;;;;;;;0.98;0.88;;;;;;;;;;5065821;28;24390;-44
2022/05/26 11:38:55;;;;;;;1.55;0.77;;;;;;;;;;5068059;28;24775;-44
2022/05/26 11:41:29;;;;;;;0.80;0.80;;;;;;;;;;5067988;28;24956;-44
2022/05/26 11:44:07;;;;;;;2.00;0.90;;;;;;;;;;5067982;28;24426;-45
2022/05/26 11:46:43;;;;;;;1.50;0.82;;;;;;;;;;5067545;28;25008;-45
2022/05/26 11:49:11;;;;;;;1.00;0.80;;;;;;;;;;5067999;28;24406;-45
2022/05/26 11:51:41;;;;;;;1.90;0.80;;;;;;;;;;5067757;28;24975;-44
2022/05/26 11:54:07;;;;;;;1.30;0.90;;;;;;;;;;5067820;28;24414;-44
2022/05/26 11:56:33;;;;;;;2.20;0.85;;;;;;;;;;5067561;28;24445;-45
2022/05/26 11:59:16;;;;;;;0.70;0.70;;;;;;;;;;5067843;28;24391;-44
2022/05/26 12:01:44;;;;;;;1.37;1.00;;;;;;;;;;5067717;28;24468;-44
2022/05/26 12:04:36;;;;;;;0.80;0.80;;;;;;;;;;5067544;28;24410;-44
2022/05/26 12:07:25;;;;;;;1.10;0.98;;;;;;;;;;5062919;28;24453;-45
2022/05/26 12:09:57;;;;;;;1.30;0.70;;;;;;;;;;5053989;28;24800;-44
2022/05/26 12:12:22;;;;;;;0.93;0.82;;;;;;;;;;5067055;28;24390;-44
2022/05/26 12:14:47;;;;;;;1.80;0.95;;;;;;;;;;5067147;28;24383;-44
2022/05/26 12:17:31;;;;;;;1.67;1.10;;;;;;;;;;5067070;28;24393;-44
2022/05/26 12:19:57;;;;;;;2.13;1.40;;;;;;;;;;5067404;28;24414;-44
2022/05/26 12:22:31;;;;;;;1.70;1.50;;;;;;;;;;5066360;28;24632;-44
2022/05/26 12:24:59;;;;;;;1.85;1.17;;;;;;;;;;5066981;28;24387;-44
2022/05/26 12:27:43;;;;;;;1.50;1.13;;;;;;;;;;5066962;28;24399;-44
2022/05/26 12:30:08;;;;;;;1.30;1.20;;;;;;;;;;5067260;28;24398;-44
2022/05/26 12:32:36;;;;;;;1.40;1.00;;;;;;;;;;5066814;28;24439;-44
2022/05/26 12:35:12;;;;;;;1.38;1.20;;;;;;;;;;5066788;28;24425;-44
2022/05/26 12:37:43;;;;;;;1.60;1.10;;;;;;;;;;5066540;28;24429;-45
2022/05/26 12:40:27;;;;;;;1.87;1.20;;;;;;;;;;5066869;28;24398;-44
2022/05/26 12:43:05;;;;;;;1.27;1.15;;;;;;;;;;5066551;28;24511;-44
2022/05/26 12:45:39;;;;;;;1.13;1.03;;;;;;;;;;5066784;28;24391;-44
2022/05/26 12:48:08;;;;;;;2.47;1.10;;;;;;;;;;5066607;28;24432;-44
2022/05/26 12:50:38;;;;;;;1.30;1.20;;;;;;;;;;5066467;28;24403;-44
2022/05/26 12:53:25;;;;;;;1.35;1.00;;;;;;;;;;5066726;28;24883;-44
2022/05/26 12:55:57;;;;;;;2.22;1.08;;;;;;;;;;5066821;28;24402;-44
2022/05/26 12:58:26;;;;;;;1.42;1.20;;;;;;;;;;5066361;28;24391;-45
2022/05/26 13:00:54;;;;;;;2.60;1.10;;;;;;;;;;5066751;28;24681;-45
2022/05/26 13:03:19;;;;;;;1.10;1.00;;;;;;;;;;5066430;28;24398;-44
2022/05/26 13:05:51;;;;;;;1.88;1.60;;;;;;;;;;5066298;28;24440;-44
2022/05/26 13:08:18;;;;;;;2.00;1.00;;;;;;;;;;5083890;28;24483;-43
2022/05/26 13:10:43;;;;;;;2.80;1.73;;;;;;;;;;5083899;28;24786;-45
2022/05/26 13:13:32;;;;;;;1.70;1.00;;;;;;;;;;5064782;28;24413;-44
2022/05/26 13:16:16;;;;;;;1.30;1.00;;;;;;;;;;5058076;28;24411;-44
2022/05/26 13:18:41;;;;;;;1.80;1.50;;;;;;;;;;5066445;28;24521;-44
2022/05/26 13:21:36;;;;;;;1.30;1.10;;;;;;;;;;5066352;28;24588;-44
2022/05/26 13:24:01;;;;;;;1.10;0.83;;;;;;;;;;5052794;28;24462;-45
2022/05/26 13:26:26;;;;;;;1.50;1.20;;;;;;;;;;5066154;28;25010;-46
2022/05/26 13:28:54;;;;;;;1.00;1.00;;;;;;;;;;5066401;28;24760;-44
2022/05/26 13:34:05;;;;;;;0.85;0.85;;;;;;;;;;5069661;28;24904;-44
2022/05/26 13:36:31;;;;;;;1.38;1.27;;;;;;;;;;5070224;28;24916;-44
2022/05/26 13:39:03;;;;;;;1.00;0.80;;;;;;;;;;5070325;28;24722;-44
2022/05/26 13:41:28;;;;;;;1.30;1.20;;;;;;;;;;5069863;28;24572;-45
2022/05/26 13:43:55;;;;;;;1.57;1.10;;;;;;;;;;5050209;28;25328;-45
2022/05/26 13:46:23;;;;;;;2.28;1.00;;;;;;;;;;5049903;28;24754;-44
2022/05/26 13:48:52;;;;;;;2.03;1.30;;;;;;;;;;5050375;28;24399;-44
2022/05/26 13:51:22;;;;;;;1.50;0.90;;;;;;;;;;5050329;28;24391;-44
2022/05/26 13:53:50;;;;;;;1.30;1.00;;;;;;;;;;5049872;28;25041;-44
2022/05/26 13:56:32;;;;;;;1.10;1.00;;;;;;;;;;5049823;28;24561;-44
2022/05/26 13:58:59;;;;;;;1.10;1.00;;;;;;;;;;5050065;28;24460;-44
2022/05/26 14:01:26;;;;;;;1.60;0.82;;;;;;;;;;5049897;28;25001;-44
2022/05/26 14:03:55;;;;;;;1.30;0.90;;;;;;;;;;5049817;28;24502;-44
2022/05/26 14:06:21;;;;;;;1.15;0.90;;;;;;;;;;5056292;28;25126;-45
2022/05/26 14:08:50;;;;;;;1.20;0.98;;;;;;;;;;5069655;28;24940;-45
2022/05/26 14:11:34;;;;;;;1.20;1.10;;;;;;;;;;5069530;28;24520;-45
2022/05/26 14:14:19;;;;;;;2.20;1.00;;;;;;;;;;5069698;28;24416;-45
2022/05/26 14:16:47;;;;;;;1.30;1.00;;;;;;;;;;5069488;28;24462;-45
2022/05/26 14:19:16;;;;;;;1.00;0.90;;;;;;;;;;5069492;28;24391;-45
2022/05/26 14:21:47;;;;;;;1.40;1.30;;;;;;;;;;5069394;28;24427;-45
2022/05/26 14:24:24;;;;;;;2.25;1.20;;;;;;;;;;5069492;28;24419;-44
2022/05/26 14:27:14;;;;;;;1.40;1.30;;;;;;;;;;5069127;28;24937;-45
2022/05/26 14:29:39;;;;;;;1.38;1.10;;;;;;;;;;5069416;28;24984;-44
2022/05/26 14:32:13;;;;;;;1.10;1.00;;;;;;;;;;5068985;28;24421;-45
2022/05/26 14:34:40;;;;;;;1.20;1.00;;;;;;;;;;5069211;28;24933;-45
2022/05/26 14:37:05;;;;;;;1.90;1.00;;;;;;;;;;5069138;28;24410;-45
2022/05/26 14:39:31;;;;;;;1.40;1.30;;;;;;;;;;5069194;28;24429;-44
2022/05/26 14:41:57;;;;;;;1.20;1.10;;;;;;;;;;5072765;28;24506;-51
2022/05/26 14:44:22;;;;;;;1.00;1.00;;;;;;;;;;5088743;28;24395;-45
2022/05/26 14:46:47;;;;;;;1.40;1.10;;;;;;;;;;5088973;28;24500;-45
2022/05/26 14:49:13;;;;;;;1.20;1.10;;;;;;;;;;5089166;28;24896;-44
2022/05/26 14:51:38;;;;;;;1.80;1.20;;;;;;;;;;5089283;28;24386;-45
2022/05/26 14:56:47;;;;;;;1.40;1.10;;;;;;;;;;5088866;28;24426;-44
2022/05/26 14:59:14;;;;;;;1.80;1.20;;;;;;;;;;5089179;28;25149;-44
2022/05/26 15:01:39;;;;;;;1.63;1.00;;;;;;;;;;5089044;28;24480;-45
2022/05/26 15:04:04;;;;;;;1.30;1.20;;;;;;;;;;5089190;28;24945;-45
2022/05/26 15:06:38;;;;;;;1.87;1.57;;;;;;;;;;5079858;28;24536;-44
2022/05/26 15:09:03;;;;;;;1.40;1.10;;;;;;;;;;5068570;28;24983;-44
2022/05/26 15:11:29;;;;;;;1.40;1.00;;;;;;;;;;5055115;28;24442;-44
2022/05/26 15:13:54;;;;;;;1.00;0.90;;;;;;;;;;5067111;28;24942;-44
2022/05/26 15:16:20;;;;;;;2.00;1.20;;;;;;;;;;5060172;28;25069;-44
2022/05/26 15:18:45;;;;;;;1.60;0.80;;;;;;;;;;5047369;28;24407;-44
2022/05/26 15:21:10;;;;;;;1.20;1.10;;;;;;;;;;5053109;28;25478;-44
2022/05/26 15:23:36;;;;;;;1.20;1.10;;;;;;;;;;5067776;28;24418;-44
2022/05/26 15:26:08;;;;;;;1.00;1.00;;;;;;;;;;5058601;28;24474;-45
2022/05/26 15:28:44;;;;;;;1.20;1.10;;;;;;;;;;5063332;28;24415;-45
2022/05/26 15:31:09;;;;;;;1.45;1.20;;;;;;;;;;5051514;28;25111;-45
2022/05/26 15:33:35;;;;;;;1.30;1.20;;;;;;;;;;5065319;28;25299;-45
2022/05/26 15:36:01;;;;;;;1.93;1.13;;;;;;;;;;5055275;28;24520;-44